createdAt,value
2017-02-21T00:00:15.370Z,1010.09
2017-02-21T00:00:56.006Z,1010.08
2017-02-21T00:01:36.649Z,1010.05
2017-02-21T00:02:17.283Z,1010.12
2017-02-21T00:02:57.913Z,1010.11
2017-02-21T00:03:38.603Z,1010.12
2017-02-21T00:04:19.317Z,1010.12
2017-02-21T00:05:00.048Z,1010.11
2017-02-21T00:05:40.626Z,1010.11
2017-02-21T00:06:21.258Z,1010.12
2017-02-21T00:07:01.918Z,1010.09
2017-02-21T00:07:42.545Z,1010.12
2017-02-21T00:08:23.293Z,1010.07
2017-02-21T00:09:03.943Z,1009.97
2017-02-21T00:09:44.593Z,1010.06
2017-02-21T00:10:25.292Z,1010.1
2017-02-21T00:11:06.003Z,1010.08
2017-02-21T00:11:46.634Z,1010.09
2017-02-21T00:12:27.313Z,1010.11
2017-02-21T00:13:07.949Z,1010.11
2017-02-21T00:13:48.575Z,1010.06
2017-02-21T00:14:29.302Z,1010.1
2017-02-21T00:15:09.959Z,1010.07
2017-02-21T00:15:50.599Z,1010.06
2017-02-21T00:16:31.230Z,1010.06
2017-02-21T00:17:11.877Z,1010.04
2017-02-21T00:17:52.568Z,1010.1
2017-02-21T00:18:33.196Z,1010.06
2017-02-21T00:19:13.834Z,1010.04
2017-02-21T00:19:54.528Z,1010.07
2017-02-21T00:20:35.164Z,1010.07
2017-02-21T00:21:15.893Z,1010.03
2017-02-21T00:21:56.542Z,1010.04
2017-02-21T00:22:37.183Z,1010.11
2017-02-21T00:23:17.807Z,1010.04
2017-02-21T00:23:58.458Z,1010.1
2017-02-21T00:24:39.100Z,1010.01
2017-02-21T00:25:19.762Z,1010.01
2017-02-21T00:26:00.435Z,1010
2017-02-21T00:26:41.060Z,1010
2017-02-21T00:27:21.748Z,1010
2017-02-21T00:28:02.379Z,1009.91
2017-02-21T00:28:43.021Z,1009.98
2017-02-21T00:29:23.757Z,1010.03
2017-02-21T00:30:04.390Z,1009.97
2017-02-21T00:30:45.056Z,1010
2017-02-21T00:31:25.707Z,1009.95
2017-02-21T00:32:06.375Z,1009.99
2017-02-21T00:32:47.057Z,1009.97
2017-02-21T00:33:27.685Z,1009.98
2017-02-21T00:34:08.414Z,1010.02
2017-02-21T00:34:49.064Z,1010.07
2017-02-21T00:35:29.705Z,1009.99
2017-02-21T00:36:10.417Z,1009.97
2017-02-21T00:36:51.049Z,1010.01
2017-02-21T00:37:31.674Z,1009.93
2017-02-21T00:38:12.329Z,1009.99
2017-02-21T00:38:53.016Z,1009.94
2017-02-21T00:39:33.748Z,1009.94
2017-02-21T00:40:14.298Z,1009.99
2017-02-21T00:40:54.974Z,1010
2017-02-21T00:41:35.645Z,1009.97
2017-02-21T00:42:16.288Z,1009.99
2017-02-21T00:42:57.027Z,1009.94
2017-02-21T00:43:37.639Z,1009.94
2017-02-21T00:44:18.274Z,1009.96
2017-02-21T00:44:59.003Z,1009.91
2017-02-21T00:45:39.737Z,1009.98
2017-02-21T00:46:20.361Z,1009.97
2017-02-21T00:47:01.023Z,1010
2017-02-21T00:47:41.695Z,1009.92
2017-02-21T00:48:22.328Z,1009.98
2017-02-21T00:49:02.970Z,1009.98
2017-02-21T00:49:43.699Z,1009.95
2017-02-21T00:50:24.337Z,1009.95
2017-02-21T00:51:04.966Z,1010.03
2017-02-21T00:51:45.652Z,1009.93
2017-02-21T00:52:26.284Z,1009.98
2017-02-21T00:53:06.922Z,1009.92
2017-02-21T00:53:47.578Z,1009.94
2017-02-21T00:54:28.199Z,1009.9
2017-02-21T00:55:08.839Z,1009.92
2017-02-21T00:55:49.461Z,1009.85
2017-02-21T00:56:30.120Z,1009.86
2017-02-21T00:57:10.748Z,1009.83
2017-02-21T00:57:51.385Z,1009.88
2017-02-21T00:58:32.927Z,1009.83
2017-02-21T00:59:13.598Z,1009.85
2017-02-21T00:59:54.227Z,1009.86
2017-02-21T01:00:34.892Z,1009.87
2017-02-21T01:01:15.572Z,1009.83
2017-02-21T01:01:56.203Z,1009.82
2017-02-21T01:02:36.948Z,1009.79
2017-02-21T01:03:17.591Z,1009.77
2017-02-21T01:03:58.254Z,1009.82
2017-02-21T01:04:38.887Z,1009.76
2017-02-21T01:05:19.528Z,1009.81
2017-02-21T01:06:00.219Z,1009.8
2017-02-21T01:06:40.851Z,1009.8
2017-02-21T01:07:21.477Z,1009.75
2017-02-21T01:08:02.140Z,1009.8
2017-02-21T01:08:42.839Z,1009.74
2017-02-21T01:09:23.468Z,1009.74
2017-02-21T01:10:04.137Z,1009.76
2017-02-21T01:10:44.771Z,1009.7
2017-02-21T01:11:25.394Z,1009.69
2017-02-21T01:12:06.060Z,1009.67
2017-02-21T01:12:46.728Z,1009.7
2017-02-21T01:13:27.349Z,1009.72
2017-02-21T01:14:08.045Z,1009.69
2017-02-21T01:14:48.674Z,1009.7
2017-02-21T01:15:29.330Z,1009.69
2017-02-21T01:16:09.950Z,1009.74
2017-02-21T01:16:50.593Z,1009.72
2017-02-21T01:17:31.253Z,1009.7
2017-02-21T01:18:11.873Z,1009.73
2017-02-21T01:18:52.516Z,1009.74
2017-02-21T01:19:33.184Z,1009.68
2017-02-21T01:20:13.809Z,1009.68
2017-02-21T01:20:54.569Z,1009.7
2017-02-21T01:21:35.200Z,1009.73
2017-02-21T01:22:15.832Z,1009.72
2017-02-21T01:22:56.561Z,1009.75
2017-02-21T01:23:37.221Z,1009.69
2017-02-21T01:24:17.852Z,1009.73
2017-02-21T01:24:58.564Z,1009.72
2017-02-21T01:25:39.200Z,1009.67
2017-02-21T01:26:19.833Z,1009.71
2017-02-21T01:27:00.486Z,1009.71
2017-02-21T01:27:41.116Z,1009.74
2017-02-21T01:28:21.752Z,1009.75
2017-02-21T01:29:02.385Z,1009.76
2017-02-21T01:29:43.040Z,1009.75
2017-02-21T01:30:23.668Z,1009.74
2017-02-21T01:31:04.363Z,1009.71
2017-02-21T01:31:44.995Z,1009.72
2017-02-21T01:32:25.627Z,1009.76
2017-02-21T01:33:06.333Z,1009.7
2017-02-21T01:33:47.061Z,1009.73
2017-02-21T01:34:27.713Z,1009.71
2017-02-21T01:35:08.342Z,1009.72
2017-02-21T01:35:48.999Z,1009.71
2017-02-21T01:36:29.649Z,1009.69
2017-02-21T01:37:10.283Z,1009.69
2017-02-21T01:37:50.988Z,1009.67
2017-02-21T01:38:31.659Z,1009.63
2017-02-21T01:39:12.295Z,1009.66
2017-02-21T01:39:52.950Z,1009.64
2017-02-21T01:40:33.584Z,1009.61
2017-02-21T01:41:14.220Z,1009.62
2017-02-21T01:41:54.895Z,1009.62
2017-02-21T01:42:35.546Z,1009.58
2017-02-21T01:43:16.174Z,1009.52
2017-02-21T01:43:56.881Z,1009.6
2017-02-21T01:44:37.557Z,1009.54
2017-02-21T01:45:18.192Z,1009.56
2017-02-21T01:45:58.831Z,1009.54
2017-02-21T01:46:39.462Z,1009.54
2017-02-21T01:47:20.087Z,1009.52
2017-02-21T01:48:00.771Z,1009.51
2017-02-21T01:48:41.418Z,1009.5
2017-02-21T01:49:22.113Z,1009.51
2017-02-21T01:50:02.755Z,1009.48
2017-02-21T01:50:43.394Z,1009.48
2017-02-21T01:51:24.041Z,1009.46
2017-02-21T01:52:04.677Z,1009.49
2017-02-21T01:52:45.311Z,1009.5
2017-02-21T01:53:26.018Z,1009.46
2017-02-21T01:54:06.643Z,1009.47
2017-02-21T01:54:47.352Z,1009.49
2017-02-21T01:55:28.030Z,1009.44
2017-02-21T01:56:08.668Z,1009.48
2017-02-21T01:56:49.315Z,1009.45
2017-02-21T01:57:29.945Z,1009.43
2017-02-21T01:58:10.579Z,1009.41
2017-02-21T01:58:51.263Z,1009.42
2017-02-21T01:59:31.919Z,1009.39
2017-02-21T02:00:12.555Z,1009.4
2017-02-21T02:00:53.236Z,1009.44
2017-02-21T02:01:33.864Z,1009.38
2017-02-21T02:02:14.495Z,1009.38
2017-02-21T02:02:55.197Z,1009.3
2017-02-21T02:03:35.820Z,1009.36
2017-02-21T02:04:16.455Z,1009.35
2017-02-21T02:04:57.088Z,1009.3
2017-02-21T02:05:37.714Z,1009.34
2017-02-21T02:06:18.343Z,1009.36
2017-02-21T02:06:58.986Z,1009.29
2017-02-21T02:07:39.628Z,1009.23
2017-02-21T02:08:20.258Z,1009.21
2017-02-21T02:09:00.958Z,1009.26
2017-02-21T02:09:41.629Z,1009.26
2017-02-21T02:10:22.287Z,1009.24
2017-02-21T02:11:02.974Z,1009.27
2017-02-21T02:11:43.616Z,1009.26
2017-02-21T02:12:24.338Z,1009.25
2017-02-21T02:13:04.984Z,1009.23
2017-02-21T02:13:45.679Z,1009.24
2017-02-21T02:14:26.310Z,1009.28
2017-02-21T02:15:06.944Z,1009.22
2017-02-21T02:15:47.573Z,1009.26
2017-02-21T02:16:28.242Z,1009.29
2017-02-21T02:17:08.869Z,1009.2
2017-02-21T02:17:49.522Z,1009.19
2017-02-21T02:18:30.178Z,1009.25
2017-02-21T02:19:10.807Z,1009.23
2017-02-21T02:19:51.536Z,1009.19
2017-02-21T02:20:32.302Z,1009.23
2017-02-21T02:21:12.939Z,1009.23
2017-02-21T02:21:53.572Z,1009.16
2017-02-21T02:22:34.199Z,1009.2
2017-02-21T02:23:14.887Z,1009.22
2017-02-21T02:23:55.536Z,1009.2
2017-02-21T02:24:36.231Z,1009.21
2017-02-21T02:25:16.973Z,1009.19
2017-02-21T02:25:57.614Z,1009.18
2017-02-21T02:26:38.243Z,1009.13
2017-02-21T02:27:18.914Z,1009.21
2017-02-21T02:27:59.592Z,1009.17
2017-02-21T02:28:40.225Z,1009.16
2017-02-21T02:29:20.979Z,1009.2
2017-02-21T02:30:01.618Z,1009.23
2017-02-21T02:30:42.257Z,1009.15
2017-02-21T02:31:22.956Z,1009.16
2017-02-21T02:32:03.594Z,1009.13
2017-02-21T02:32:44.231Z,1009.13
2017-02-21T02:33:24.876Z,1009.12
2017-02-21T02:34:05.507Z,1009.14
2017-02-21T02:34:46.137Z,1009.14
2017-02-21T02:35:26.813Z,1009.13
2017-02-21T02:36:07.469Z,1009.19
2017-02-21T02:36:48.097Z,1009.16
2017-02-21T02:37:28.774Z,1009.13
2017-02-21T02:38:09.518Z,1009.15
2017-02-21T02:38:50.146Z,1009.16
2017-02-21T02:39:30.876Z,1009.16
2017-02-21T02:40:11.507Z,1009.24
2017-02-21T02:40:52.169Z,1009.2
2017-02-21T02:41:32.792Z,1009.18
2017-02-21T02:42:13.427Z,1009.19
2017-02-21T02:42:54.072Z,1009.18
2017-02-21T02:43:34.715Z,1009.17
2017-02-21T02:44:15.341Z,1009.16
2017-02-21T02:44:56.021Z,1009.17
2017-02-21T02:45:36.646Z,1009.23
2017-02-21T02:46:17.299Z,1009.19
2017-02-21T02:46:57.981Z,1009.15
2017-02-21T02:47:38.604Z,1009.15
2017-02-21T02:48:19.242Z,1009.21
2017-02-21T02:48:59.912Z,1009.2
2017-02-21T02:49:40.551Z,1009.16
2017-02-21T02:50:21.249Z,1009.08
2017-02-21T02:51:01.880Z,1009.16
2017-02-21T02:51:42.508Z,1009.18
2017-02-21T02:52:23.172Z,1009.12
2017-02-21T02:53:03.952Z,1009.15
2017-02-21T02:53:44.582Z,1009.16
2017-02-21T02:54:25.237Z,1009.15
2017-02-21T02:55:05.877Z,1009.11
2017-02-21T02:55:46.501Z,1009.14
2017-02-21T02:56:27.163Z,1009.11
2017-02-21T02:57:07.806Z,1009.12
2017-02-21T02:57:48.437Z,1009.1
2017-02-21T02:58:29.115Z,1009.08
2017-02-21T02:59:09.861Z,1009.12
2017-02-21T02:59:50.496Z,1009.08
2017-02-21T03:00:31.142Z,1009.08
2017-02-21T03:01:11.841Z,1009.04
2017-02-21T03:01:52.481Z,1009.06
2017-02-21T03:02:33.096Z,1009
2017-02-21T03:03:13.755Z,1009.06
2017-02-21T03:03:54.381Z,1009
2017-02-21T03:04:35.016Z,1009.04
2017-02-21T03:05:15.686Z,1009.02
2017-02-21T03:05:56.320Z,1008.99
2017-02-21T03:06:36.941Z,1009.05
2017-02-21T03:07:17.567Z,1008.98
2017-02-21T03:07:58.197Z,1009.05
2017-02-21T03:08:38.822Z,1008.99
2017-02-21T03:09:19.448Z,1008.97
2017-02-21T03:10:00.082Z,1008.99
2017-02-21T03:10:40.702Z,1009.03
2017-02-21T03:11:21.339Z,1009.01
2017-02-21T03:12:01.960Z,1009.01
2017-02-21T03:12:42.602Z,1008.97
2017-02-21T03:13:23.292Z,1008.99
2017-02-21T03:14:03.980Z,1008.95
2017-02-21T03:14:44.621Z,1008.97
2017-02-21T03:15:25.253Z,1009.02
2017-02-21T03:16:05.912Z,1008.98
2017-02-21T03:16:46.541Z,1008.98
2017-02-21T03:17:27.309Z,1008.95
2017-02-21T03:18:07.961Z,1008.95
2017-02-21T03:18:48.598Z,1008.97
2017-02-21T03:19:29.289Z,1008.97
2017-02-21T03:20:09.964Z,1008.96
2017-02-21T03:20:50.617Z,1009
2017-02-21T03:21:31.229Z,1008.99
2017-02-21T03:22:11.883Z,1008.97
2017-02-21T03:22:52.547Z,1009.03
2017-02-21T03:23:33.175Z,1009.07
2017-02-21T03:24:13.917Z,1009.03
2017-02-21T03:24:54.568Z,1009.04
2017-02-21T03:25:35.210Z,1008.96
2017-02-21T03:26:15.852Z,1009.05
2017-02-21T03:26:56.477Z,1008.98
2017-02-21T03:27:37.111Z,1008.94
2017-02-21T03:28:17.739Z,1009.01
2017-02-21T03:28:58.414Z,1009.04
2017-02-21T03:29:39.044Z,1009
2017-02-21T03:30:19.769Z,1009
2017-02-21T03:31:00.440Z,1009.01
2017-02-21T03:31:41.061Z,1008.99
2017-02-21T03:32:21.761Z,1008.98
2017-02-21T03:33:02.394Z,1009.01
2017-02-21T03:33:43.023Z,1009.05
2017-02-21T03:34:23.732Z,1009.12
2017-02-21T03:35:04.481Z,1009.01
2017-02-21T03:35:45.154Z,1009.06
2017-02-21T03:36:25.781Z,1009.04
2017-02-21T03:37:06.497Z,1008.99
2017-02-21T03:37:47.117Z,1009.04
2017-02-21T03:38:27.758Z,1009.03
2017-02-21T03:39:08.475Z,1008.98
2017-02-21T03:39:49.127Z,1009.01
2017-02-21T03:40:29.755Z,1008.99
2017-02-21T03:41:10.446Z,1008.94
2017-02-21T03:41:51.081Z,1008.98
2017-02-21T03:42:31.721Z,1009
2017-02-21T03:43:12.408Z,1008.95
2017-02-21T03:43:53.158Z,1009
2017-02-21T03:44:33.817Z,1008.94
2017-02-21T03:45:14.452Z,1008.99
2017-02-21T03:45:55.160Z,1008.99
2017-02-21T03:46:35.921Z,1008.98
2017-02-21T03:47:16.554Z,1009.01
2017-02-21T03:47:58.033Z,1009.04
2017-02-21T03:48:38.681Z,1009.03
2017-02-21T03:49:19.312Z,1009.03
2017-02-21T03:50:00.028Z,1009.04
2017-02-21T03:50:40.663Z,1009.04
2017-02-21T03:51:21.296Z,1009.02
2017-02-21T03:52:01.980Z,1009.01
2017-02-21T03:52:42.609Z,1009.01
2017-02-21T03:53:23.259Z,1009.01
2017-02-21T03:54:03.964Z,1009.01
2017-02-21T03:54:44.601Z,1009
2017-02-21T03:55:25.228Z,1008.98
2017-02-21T03:56:05.886Z,1008.93
2017-02-21T03:56:46.566Z,1008.95
2017-02-21T03:57:27.301Z,1008.91
2017-02-21T03:58:07.840Z,1008.91
2017-02-21T03:58:48.587Z,1008.97
2017-02-21T03:59:29.297Z,1008.89
2017-02-21T04:00:09.927Z,1008.9
2017-02-21T04:00:50.595Z,1008.88
2017-02-21T04:01:31.223Z,1008.89
2017-02-21T04:02:11.858Z,1008.88
2017-02-21T04:02:52.527Z,1008.9
2017-02-21T04:03:33.186Z,1008.9
2017-02-21T04:04:13.816Z,1008.9
2017-02-21T04:04:54.490Z,1008.97
2017-02-21T04:05:35.131Z,1008.92
2017-02-21T04:06:15.755Z,1008.89
2017-02-21T04:06:56.438Z,1008.89
2017-02-21T04:07:37.141Z,1008.94
2017-02-21T04:08:17.785Z,1008.95
2017-02-21T04:08:58.472Z,1008.96
2017-02-21T04:09:39.110Z,1008.92
2017-02-21T04:10:19.737Z,1008.92
2017-02-21T04:11:00.428Z,1008.98
2017-02-21T04:11:41.061Z,1008.9
2017-02-21T04:12:21.710Z,1008.91
2017-02-21T04:13:02.360Z,1008.91
2017-02-21T04:13:43.014Z,1008.94
2017-02-21T04:14:23.692Z,1008.95
2017-02-21T04:15:04.336Z,1008.92
2017-02-21T04:15:45.039Z,1008.93
2017-02-21T04:16:25.679Z,1008.97
2017-02-21T04:17:06.311Z,1008.94
2017-02-21T04:17:46.993Z,1008.92
2017-02-21T04:18:27.623Z,1008.92
2017-02-21T04:19:08.265Z,1008.84
2017-02-21T04:19:48.921Z,1008.91
2017-02-21T04:20:29.548Z,1008.89
2017-02-21T04:21:10.185Z,1009.02
2017-02-21T04:21:50.863Z,1008.9
2017-02-21T04:22:31.559Z,1008.89
2017-02-21T04:23:12.200Z,1008.87
2017-02-21T04:23:52.872Z,1008.87
2017-02-21T04:24:33.602Z,1008.82
2017-02-21T04:25:14.239Z,1008.85
2017-02-21T04:25:54.868Z,1008.87
2017-02-21T04:26:35.502Z,1008.82
2017-02-21T04:27:16.231Z,1008.85
2017-02-21T04:27:56.876Z,1008.77
2017-02-21T04:28:37.511Z,1008.85
2017-02-21T04:29:18.157Z,1008.79
2017-02-21T04:29:58.786Z,1008.82
2017-02-21T04:30:39.471Z,1008.78
2017-02-21T04:31:20.094Z,1008.83
2017-02-21T04:32:00.722Z,1008.78
2017-02-21T04:32:41.427Z,1008.77
2017-02-21T04:33:22.056Z,1008.81
2017-02-21T04:34:02.680Z,1008.77
2017-02-21T04:34:43.365Z,1008.82
2017-02-21T04:35:23.995Z,1008.76
2017-02-21T04:36:04.634Z,1008.79
2017-02-21T04:36:45.257Z,1008.75
2017-02-21T04:37:25.990Z,1008.72
2017-02-21T04:38:06.621Z,1008.75
2017-02-21T04:38:47.271Z,1008.75
2017-02-21T04:39:27.986Z,1008.72
2017-02-21T04:40:08.656Z,1008.74
2017-02-21T04:40:49.301Z,1008.7
2017-02-21T04:41:29.931Z,1008.72
2017-02-21T04:42:10.581Z,1008.73
2017-02-21T04:42:51.259Z,1008.75
2017-02-21T04:43:31.898Z,1008.76
2017-02-21T04:44:12.563Z,1008.78
2017-02-21T04:44:53.195Z,1008.76
2017-02-21T04:45:33.829Z,1008.7
2017-02-21T04:46:14.487Z,1008.74
2017-02-21T04:46:55.145Z,1008.75
2017-02-21T04:47:35.832Z,1008.74
2017-02-21T04:48:16.462Z,1008.82
2017-02-21T04:48:57.093Z,1008.75
2017-02-21T04:49:37.725Z,1008.76
2017-02-21T04:50:18.352Z,1008.82
2017-02-21T04:50:58.994Z,1008.76
2017-02-21T04:51:39.652Z,1008.77
2017-02-21T04:52:20.287Z,1008.75
2017-02-21T04:53:00.920Z,1008.72
2017-02-21T04:53:41.631Z,1008.77
2017-02-21T04:54:22.287Z,1008.77
2017-02-21T04:55:02.919Z,1008.76
2017-02-21T04:55:43.541Z,1008.72
2017-02-21T04:56:24.290Z,1008.74
2017-02-21T04:57:04.927Z,1008.75
2017-02-21T04:57:45.653Z,1008.73
2017-02-21T04:58:26.361Z,1008.76
2017-02-21T04:59:07.040Z,1008.69
2017-02-21T04:59:47.685Z,1008.79
2017-02-21T05:00:28.383Z,1008.77
2017-02-21T05:01:09.041Z,1008.76
2017-02-21T05:01:49.676Z,1008.72
2017-02-21T05:02:30.327Z,1008.71
2017-02-21T05:03:11.004Z,1008.75
2017-02-21T05:03:51.648Z,1008.67
2017-02-21T05:04:32.328Z,1008.75
2017-02-21T05:05:13.119Z,1008.77
2017-02-21T05:05:53.833Z,1008.73
2017-02-21T05:06:34.481Z,1008.73
2017-02-21T05:07:15.116Z,1008.78
2017-02-21T05:07:55.857Z,1008.76
2017-02-21T05:08:36.488Z,1008.89
2017-02-21T05:09:17.152Z,1008.78
2017-02-21T05:09:57.877Z,1008.75
2017-02-21T05:10:38.517Z,1008.79
2017-02-21T05:11:19.154Z,1008.76
2017-02-21T05:11:59.860Z,1008.78
2017-02-21T05:12:40.508Z,1008.76
2017-02-21T05:13:21.134Z,1008.76
2017-02-21T05:14:01.799Z,1008.81
2017-02-21T05:14:42.439Z,1008.8
2017-02-21T05:15:23.084Z,1008.76
2017-02-21T05:16:03.801Z,1008.79
2017-02-21T05:16:44.498Z,1008.78
2017-02-21T05:17:25.128Z,1008.82
2017-02-21T05:18:05.753Z,1008.8
2017-02-21T05:18:46.390Z,1008.79
2017-02-21T05:19:27.023Z,1008.85
2017-02-21T05:20:07.680Z,1008.79
2017-02-21T05:20:48.309Z,1008.79
2017-02-21T05:21:28.947Z,1008.79
2017-02-21T05:22:09.585Z,1008.8
2017-02-21T05:22:50.286Z,1008.81
2017-02-21T05:23:30.916Z,1008.81
2017-02-21T05:24:11.571Z,1008.77
2017-02-21T05:24:52.198Z,1008.83
2017-02-21T05:25:32.827Z,1008.79
2017-02-21T05:26:13.456Z,1008.86
2017-02-21T05:26:54.156Z,1008.86
2017-02-21T05:27:34.787Z,1008.83
2017-02-21T05:28:15.426Z,1008.79
2017-02-21T05:28:56.104Z,1008.78
2017-02-21T05:29:36.739Z,1008.81
2017-02-21T05:30:17.444Z,1008.82
2017-02-21T05:30:58.153Z,1008.82
2017-02-21T05:31:38.799Z,1008.84
2017-02-21T05:32:19.428Z,1008.83
2017-02-21T05:33:00.088Z,1008.77
2017-02-21T05:33:40.715Z,1008.85
2017-02-21T05:34:21.345Z,1008.8
2017-02-21T05:35:02.075Z,1008.75
2017-02-21T05:35:42.813Z,1008.74
2017-02-21T05:36:23.451Z,1008.76
2017-02-21T05:37:04.084Z,1008.78
2017-02-21T05:37:44.713Z,1008.75
2017-02-21T05:38:25.342Z,1008.75
2017-02-21T05:39:05.975Z,1008.83
2017-02-21T05:39:46.699Z,1008.79
2017-02-21T05:40:27.331Z,1008.75
2017-02-21T05:41:07.956Z,1008.79
2017-02-21T05:41:48.696Z,1008.81
2017-02-21T05:42:29.332Z,1008.75
2017-02-21T05:43:09.955Z,1008.84
2017-02-21T05:43:50.644Z,1008.77
2017-02-21T05:44:31.363Z,1008.85
2017-02-21T05:45:12.003Z,1008.81
2017-02-21T05:45:52.632Z,1008.84
2017-02-21T05:46:33.265Z,1008.84
2017-02-21T05:47:13.895Z,1008.86
2017-02-21T05:47:54.629Z,1008.81
2017-02-21T05:48:35.333Z,1008.86
2017-02-21T05:49:15.973Z,1008.87
2017-02-21T05:49:56.588Z,1008.83
2017-02-21T05:50:37.259Z,1008.83
2017-02-21T05:51:17.897Z,1008.85
2017-02-21T05:51:58.533Z,1008.87
2017-02-21T05:52:39.199Z,1008.86
2017-02-21T05:53:19.898Z,1008.82
2017-02-21T05:54:00.491Z,1008.87
2017-02-21T05:54:41.130Z,1008.89
2017-02-21T05:55:21.761Z,1008.87
2017-02-21T05:56:02.386Z,1008.85
2017-02-21T05:56:43.037Z,1008.88
2017-02-21T05:57:23.671Z,1008.82
2017-02-21T05:58:04.303Z,1008.8
2017-02-21T05:58:44.929Z,1008.8
2017-02-21T05:59:25.574Z,1008.79
2017-02-21T06:00:06.227Z,1008.84
2017-02-21T06:00:46.858Z,1008.85
2017-02-21T06:01:27.484Z,1008.81
2017-02-21T06:02:08.189Z,1008.83
2017-02-21T06:02:48.819Z,1008.82
2017-02-21T06:03:29.458Z,1008.83
2017-02-21T06:04:10.092Z,1008.85
2017-02-21T06:04:50.721Z,1008.87
2017-02-21T06:05:31.355Z,1008.81
2017-02-21T06:06:12.034Z,1008.9
2017-02-21T06:06:52.749Z,1008.87
2017-02-21T06:07:33.411Z,1008.85
2017-02-21T06:08:14.061Z,1008.88
2017-02-21T06:08:54.725Z,1008.9
2017-02-21T06:09:35.359Z,1008.88
2017-02-21T06:10:15.985Z,1008.95
2017-02-21T06:10:56.698Z,1008.86
2017-02-21T06:11:37.326Z,1008.89
2017-02-21T06:12:17.957Z,1008.89
2017-02-21T06:12:58.603Z,1008.92
2017-02-21T06:13:39.234Z,1008.93
2017-02-21T06:14:19.866Z,1008.87
2017-02-21T06:15:00.526Z,1008.91
2017-02-21T06:15:41.187Z,1008.91
2017-02-21T06:16:21.825Z,1008.9
2017-02-21T06:17:02.500Z,1008.96
2017-02-21T06:17:43.128Z,1008.95
2017-02-21T06:18:23.761Z,1008.97
2017-02-21T06:19:04.406Z,1009.03
2017-02-21T06:19:45.040Z,1008.98
2017-02-21T06:20:25.661Z,1008.97
2017-02-21T06:21:06.371Z,1008.95
2017-02-21T06:21:47.032Z,1008.99
2017-02-21T06:22:27.670Z,1009.01
2017-02-21T06:23:08.302Z,1008.94
2017-02-21T06:23:48.952Z,1008.99
2017-02-21T06:24:29.580Z,1009.01
2017-02-21T06:25:10.290Z,1009
2017-02-21T06:25:50.935Z,1008.97
2017-02-21T06:26:31.574Z,1009
2017-02-21T06:27:12.232Z,1008.99
2017-02-21T06:27:52.868Z,1009
2017-02-21T06:28:33.497Z,1008.97
2017-02-21T06:29:14.128Z,1008.97
2017-02-21T06:29:54.790Z,1008.97
2017-02-21T06:30:35.414Z,1008.95
2017-02-21T06:31:16.048Z,1008.86
2017-02-21T06:31:56.697Z,1008.92
2017-02-21T06:32:37.341Z,1008.91
2017-02-21T06:33:18.040Z,1008.89
2017-02-21T06:33:58.770Z,1008.93
2017-02-21T06:34:39.485Z,1008.94
2017-02-21T06:35:20.112Z,1008.93
2017-02-21T06:36:00.806Z,1008.84
2017-02-21T06:36:41.535Z,1008.9
2017-02-21T06:37:22.190Z,1008.91
2017-02-21T06:38:02.826Z,1008.93
2017-02-21T06:38:43.590Z,1008.87
2017-02-21T06:39:24.302Z,1008.89
2017-02-21T06:40:04.927Z,1008.88
2017-02-21T06:40:45.606Z,1008.85
2017-02-21T06:41:26.350Z,1008.9
2017-02-21T06:42:06.986Z,1008.92
2017-02-21T06:42:47.616Z,1008.92
2017-02-21T06:43:28.285Z,1008.85
2017-02-21T06:44:08.932Z,1008.94
2017-02-21T06:44:49.559Z,1008.92
2017-02-21T06:45:30.187Z,1008.92
2017-02-21T06:46:10.826Z,1008.95
2017-02-21T06:46:51.458Z,1008.92
2017-02-21T06:47:32.083Z,1008.98
2017-02-21T06:48:12.723Z,1008.98
2017-02-21T06:48:53.348Z,1009
2017-02-21T06:49:33.983Z,1009.01
2017-02-21T06:50:14.611Z,1009
2017-02-21T06:50:55.365Z,1008.99
2017-02-21T06:51:35.996Z,1008.99
2017-02-21T06:52:16.632Z,1009
2017-02-21T06:52:57.263Z,1008.98
2017-02-21T06:53:37.907Z,1008.98
2017-02-21T06:54:18.536Z,1009.01
2017-02-21T06:54:59.190Z,1009.01
2017-02-21T06:55:39.817Z,1008.98
2017-02-21T06:56:20.469Z,1009.02
2017-02-21T06:57:01.115Z,1009.03
2017-02-21T06:57:41.863Z,1009.04
2017-02-21T06:58:22.537Z,1008.98
2017-02-21T06:59:03.174Z,1009.01
2017-02-21T06:59:43.852Z,1009.03
2017-02-21T07:00:24.495Z,1009.01
2017-02-21T07:01:05.132Z,1009.01
2017-02-21T07:01:45.817Z,1008.99
2017-02-21T07:02:26.444Z,1008.97
2017-02-21T07:03:07.083Z,1008.97
2017-02-21T07:03:47.752Z,1008.94
2017-02-21T07:04:28.387Z,1008.97
2017-02-21T07:05:09.020Z,1008.99
2017-02-21T07:05:49.671Z,1008.91
2017-02-21T07:06:30.311Z,1009.02
2017-02-21T07:07:10.937Z,1008.96
2017-02-21T07:07:51.638Z,1008.91
2017-02-21T07:08:32.346Z,1008.94
2017-02-21T07:09:12.969Z,1008.94
2017-02-21T07:09:53.629Z,1008.9
2017-02-21T07:10:34.286Z,1008.88
2017-02-21T07:11:14.927Z,1008.87
2017-02-21T07:11:55.559Z,1008.96
2017-02-21T07:12:36.310Z,1008.91
2017-02-21T07:13:17.578Z,1008.9
2017-02-21T07:13:58.227Z,1008.94
2017-02-21T07:14:38.864Z,1008.98
2017-02-21T07:15:19.488Z,1008.99
2017-02-21T07:16:00.145Z,1008.95
2017-02-21T07:16:40.773Z,1008.98
2017-02-21T07:17:21.400Z,1008.96
2017-02-21T07:18:02.076Z,1009
2017-02-21T07:18:42.727Z,1009
2017-02-21T07:19:23.363Z,1008.95
2017-02-21T07:20:04.006Z,1009.02
2017-02-21T07:20:45.648Z,1008.99
2017-02-21T07:21:26.295Z,1009
2017-02-21T07:22:06.921Z,1008.97
2017-02-21T07:22:47.627Z,1009
2017-02-21T07:23:28.277Z,1008.94
2017-02-21T07:24:09.005Z,1009.03
2017-02-21T07:24:49.704Z,1008.95
2017-02-21T07:25:30.342Z,1008.87
2017-02-21T07:26:10.973Z,1008.92
2017-02-21T07:26:51.632Z,1008.99
2017-02-21T07:27:32.266Z,1008.97
2017-02-21T07:28:12.974Z,1008.98
2017-02-21T07:28:53.621Z,1008.96
2017-02-21T07:29:34.257Z,1008.95
2017-02-21T07:30:14.903Z,1008.87
2017-02-21T07:30:55.549Z,1008.91
2017-02-21T07:31:36.182Z,1008.89
2017-02-21T07:32:16.855Z,1008.86
2017-02-21T07:32:57.516Z,1008.88
2017-02-21T07:33:38.233Z,1008.84
2017-02-21T07:34:18.857Z,1008.89
2017-02-21T07:34:59.485Z,1008.86
2017-02-21T07:35:40.131Z,1008.9
2017-02-21T07:36:20.763Z,1008.88
2017-02-21T07:37:01.399Z,1008.85
2017-02-21T07:37:42.090Z,1008.86
2017-02-21T07:38:22.731Z,1008.89
2017-02-21T07:39:04.014Z,1008.87
2017-02-21T07:39:44.649Z,1008.91
2017-02-21T07:40:25.317Z,1008.92
2017-02-21T07:41:05.966Z,1008.91
2017-02-21T07:41:46.590Z,1008.87
2017-02-21T07:42:27.278Z,1008.92
2017-02-21T07:43:07.917Z,1008.95
2017-02-21T07:43:48.550Z,1009.01
2017-02-21T07:44:29.282Z,1009.02
2017-02-21T07:45:09.911Z,1009.02
2017-02-21T07:45:50.544Z,1009.03
2017-02-21T07:46:31.198Z,1009.06
2017-02-21T07:47:11.839Z,1009.05
2017-02-21T07:47:52.467Z,1009.1
2017-02-21T07:48:33.097Z,1009.09
2017-02-21T07:49:13.736Z,1009.07
2017-02-21T07:49:54.362Z,1009.06
2017-02-21T07:50:35.056Z,1009.1
2017-02-21T07:51:15.678Z,1009.12
2017-02-21T07:51:56.312Z,1009.06
2017-02-21T07:52:36.969Z,1008.99
2017-02-21T07:53:17.612Z,1009.09
2017-02-21T07:53:58.260Z,1009.02
2017-02-21T07:54:38.948Z,1009.01
2017-02-21T07:55:19.576Z,1009.01
2017-02-21T07:56:00.219Z,1009.04
2017-02-21T07:56:40.847Z,1009.04
2017-02-21T07:57:21.483Z,1009
2017-02-21T07:58:02.116Z,1008.98
2017-02-21T07:58:42.811Z,1009.02
2017-02-21T07:59:23.438Z,1009.01
2017-02-21T08:00:04.103Z,1009
2017-02-21T08:00:44.700Z,1009.02
2017-02-21T08:01:25.339Z,1009.02
2017-02-21T08:02:05.975Z,1009.02
2017-02-21T08:02:46.600Z,1009.01
2017-02-21T08:03:27.236Z,1009.05
2017-02-21T08:04:07.864Z,1009.04
2017-02-21T08:04:48.553Z,1009.08
2017-02-21T08:05:29.234Z,1009.04
2017-02-21T08:06:09.860Z,1009.05
2017-02-21T08:06:50.530Z,1008.96
2017-02-21T08:07:31.242Z,1009.04
2017-02-21T08:08:11.913Z,1009.06
2017-02-21T08:08:52.554Z,1009.05
2017-02-21T08:09:33.252Z,1009.08
2017-02-21T08:10:13.919Z,1009.04
2017-02-21T08:10:54.575Z,1009.06
2017-02-21T08:11:35.312Z,1009.08
2017-02-21T08:12:16.034Z,1009.05
2017-02-21T08:12:56.710Z,1009.06
2017-02-21T08:13:37.346Z,1009.11
2017-02-21T08:14:18.067Z,1009.05